Time;durP1;ratioP1;P1;durP2;ratioP2;P2;SDS_P1;SDS_P2;PMS_P1;PMS_P2;Temp;Humidity;BMP_temperature;BMP_pressure;BME280_temperature;BME280_humidity;BME280_pressure;Samples;Min_cycle;Max_cycle;Signal;HPM_P1;HPM_P2
2022/04/12 00:00:22;;;;;;;4.23;3.37;;;6.00;99.90;;;6.66;68.38;-19953.66;5033215;28;20320;-60
2022/04/12 00:02:50;;;;;;;4.60;3.47;;;6.00;99.90;;;6.54;68.54;-19949.56;5031609;28;20232;-61
2022/04/12 00:05:18;;;;;;;3.93;3.10;;;5.90;99.90;;;6.51;68.97;-19948.38;5032975;28;20324;-61
2022/04/12 00:07:59;;;;;;;4.30;3.30;;;5.90;99.90;;;6.54;68.80;-19949.56;5033163;28;20225;-61
2022/04/12 00:10:28;;;;;;;4.07;3.13;;;5.90;99.90;;;6.44;69.60;-19946.16;5032884;28;20296;-61
2022/04/12 00:12:57;;;;;;;4.83;3.07;;;5.80;99.90;;;6.42;69.69;-19945.28;5033087;28;20212;-59
2022/04/12 00:15:26;;;;;;;4.57;3.20;;;5.80;99.90;;;6.41;69.88;-19944.94;5032947;28;20931;-60
2022/04/12 00:20:42;;;;;;;3.83;3.13;;;5.70;99.90;;;6.22;70.43;-19938.47;5032581;28;20772;-59
2022/04/12 00:23:14;;;;;;;3.83;3.43;;;5.60;99.90;;;6.29;70.32;-19940.84;5032407;28;20319;-59
2022/04/12 00:25:44;;;;;;;4.30;3.63;;;5.60;99.90;;;6.21;70.78;-19938.28;5032783;28;20183;-62
2022/04/12 00:28:13;;;;;;;5.67;3.30;;;5.60;99.90;;;6.21;70.80;-19938.28;5033145;28;20259;-61
2022/04/12 00:30:42;;;;;;;4.90;3.47;;;5.60;99.90;;;6.10;71.44;-19934.53;5032446;28;20236;-60
2022/04/12 00:33:10;;;;;;;4.80;3.40;;;5.50;99.90;;;6.10;71.90;-19934.53;5032485;28;20250;-61
2022/04/12 00:35:38;;;;;;;4.17;3.40;;;5.50;99.90;;;6.15;71.87;-19936.41;5032421;28;20315;-61
2022/04/12 00:38:17;;;;;;;4.60;3.33;;;5.50;99.90;;;6.11;72.42;-19934.88;5032499;28;20599;-60
2022/04/12 00:40:47;;;;;;;5.47;3.60;;;5.40;99.90;;;5.96;74.07;-19929.75;5032230;28;20246;-61
2022/04/12 00:43:18;;;;;;;3.40;3.10;;;5.40;99.90;;;5.93;74.20;-19928.88;5032653;28;20205;-60
2022/04/12 00:45:47;;;;;;;4.77;3.43;;;5.30;99.90;;;6.00;74.19;-19931.28;5032240;28;20259;-61
2022/04/12 00:48:15;;;;;;;4.40;3.60;;;5.30;99.90;;;5.92;74.31;-19928.53;5032727;28;20236;-61
2022/04/12 00:50:45;;;;;;;4.50;3.33;;;5.30;99.90;;;5.85;74.34;-19925.97;5032441;28;20424;-60
2022/04/12 00:53:13;;;;;;;3.73;3.37;;;5.20;99.90;;;5.81;74.94;-19924.78;5032218;28;20224;-60
2022/04/12 00:55:41;;;;;;;5.67;3.60;;;5.20;99.90;;;5.83;74.21;-19925.31;5031930;28;20244;-60
2022/04/12 00:58:11;;;;;;;4.63;3.33;;;5.20;99.90;;;5.86;73.93;-19926.31;5032070;28;20285;-61
2022/04/12 01:00:39;;;;;;;4.90;3.30;;;5.20;99.90;;;5.83;73.87;-19925.47;5031865;28;20795;-61
2022/04/12 01:03:07;;;;;;;3.30;2.97;;;5.20;99.90;;;5.95;73.18;-19929.56;5032183;28;20239;-61
2022/04/12 01:05:37;;;;;;;5.30;3.70;;;5.20;99.90;;;5.98;72.77;-19930.44;5031408;28;20282;-60
2022/04/12 01:08:05;;;;;;;6.53;3.47;;;5.20;99.90;;;5.86;73.77;-19926.31;5031910;28;20227;-60
2022/04/12 01:10:34;;;;;;;4.37;3.13;;;5.20;99.90;;;5.95;73.22;-19929.41;5031845;28;20203;-61
2022/04/12 01:13:02;;;;;;;5.53;3.23;;;5.20;99.90;;;6.04;72.34;-19932.47;5031509;28;20234;-62
2022/04/12 01:15:32;;;;;;;5.07;3.80;;;5.30;99.90;;;6.01;72.38;-19931.44;5031645;28;20235;-60
2022/04/12 01:18:00;;;;;;;4.37;3.20;;;5.30;99.90;;;6.02;72.36;-19931.97;5031485;28;20263;-61
2022/04/12 01:20:30;;;;;;;3.80;3.07;;;5.30;99.90;;;5.96;72.59;-19929.75;5031610;28;20329;-60
2022/04/12 01:23:06;;;;;;;4.00;3.47;;;5.30;99.90;;;6.03;72.05;-19932.31;5031632;28;20224;-60
2022/04/12 01:25:37;;;;;;;5.40;3.20;;;5.30;99.90;;;6.05;72.08;-19932.81;5031521;28;20299;-62
2022/04/12 01:28:06;;;;;;;5.53;3.47;;;5.30;99.90;;;5.96;72.17;-19929.75;5031715;28;20664;-61
2022/04/12 01:30:35;;;;;;;5.20;3.30;;;5.30;99.90;;;5.99;72.61;-19930.94;5031281;28;20232;-60
2022/04/12 01:33:04;;;;;;;4.20;3.20;;;5.30;99.90;;;5.83;73.30;-19925.31;5031271;28;20235;-59
2022/04/12 01:35:32;;;;;;;4.17;3.33;;;5.30;99.90;;;5.87;73.00;-19926.66;5030978;28;20231;-61
2022/04/12 01:38:01;;;;;;;4.17;3.20;;;5.20;99.90;;;5.69;73.73;-19920.69;5031336;28;20647;-61
2022/04/12 01:40:29;;;;;;;4.13;3.57;;;5.20;99.90;;;5.65;74.13;-19919.31;5031042;28;20673;-62
2022/04/12 01:42:59;;;;;;;4.40;3.50;;;5.10;99.90;;;5.73;74.49;-19922.03;5031712;28;20294;-60
2022/04/12 01:45:27;;;;;;;4.23;3.57;;;5.10;99.90;;;5.80;73.75;-19924.28;5030825;28;20784;-61
2022/04/12 01:47:55;;;;;;;3.57;3.10;;;5.10;99.90;;;5.79;74.50;-19923.94;5030990;28;20318;-60
2022/04/12 01:50:23;;;;;;;4.23;3.40;;;5.10;99.90;;;5.64;74.70;-19918.78;5030807;28;20739;-60
2022/04/12 01:52:51;;;;;;;3.50;3.03;;;5.00;99.90;;;5.54;75.06;-19915.38;5031183;28;20306;-60
2022/04/12 01:55:19;;;;;;;4.40;3.23;;;5.00;99.90;;;5.48;75.34;-19913.50;5031561;28;20210;-60
2022/04/12 01:57:47;;;;;;;4.10;3.40;;;4.90;99.90;;;5.49;75.56;-19913.84;5030653;28;20788;-61
2022/04/12 02:00:17;;;;;;;4.73;3.07;;;4.90;99.90;;;5.60;75.49;-19917.44;5030915;28;20620;-60
2022/04/12 02:02:45;;;;;;;5.23;3.30;;;4.80;99.90;;;5.68;74.88;-19920.16;5030437;28;20296;-61
2022/04/12 02:05:14;;;;;;;4.10;3.70;;;4.90;99.90;;;5.62;75.44;-19918.13;5030481;28;20291;-61
2022/04/12 02:07:43;;;;;;;3.73;3.10;;;4.90;99.90;;;5.64;75.34;-19918.78;5030682;28;20244;-61
2022/04/12 02:10:12;;;;;;;5.17;3.50;;;4.90;99.90;;;5.65;75.50;-19919.16;5030943;28;20230;-61
2022/04/12 02:12:40;;;;;;;4.33;3.53;;;4.90;99.90;;;5.49;76.60;-19913.66;5030484;28;20265;-61
2022/04/12 02:15:09;;;;;;;4.67;3.27;;;4.90;99.90;;;5.55;76.35;-19915.72;5030577;28;20224;-60
2022/04/12 02:17:38;;;;;;;4.90;3.20;;;4.90;99.90;;;5.47;76.69;-19913.16;5030453;28;20787;-61
2022/04/12 02:20:07;;;;;;;3.50;3.20;;;4.90;99.90;;;5.51;77.04;-19914.34;5030414;28;20220;-60
2022/04/12 02:22:35;;;;;;;5.47;3.97;;;4.80;99.90;;;5.44;77.10;-19912.13;5030687;28;20299;-60
2022/04/12 02:25:05;;;;;;;3.60;3.30;;;4.80;99.90;;;5.61;76.06;-19917.78;5029789;28;20229;-60
2022/04/12 02:27:33;;;;;;;4.10;3.30;;;4.90;99.90;;;5.58;76.12;-19916.75;5030404;28;20236;-60
2022/04/12 02:30:01;;;;;;;4.77;3.73;;;4.90;99.90;;;5.50;76.17;-19914.19;5030234;28;20734;-61
2022/04/12 02:32:29;;;;;;;5.70;3.47;;;4.90;99.90;;;5.63;75.55;-19918.63;5030584;28;20233;-62
2022/04/12 02:35:00;;;;;;;4.30;3.57;;;4.90;99.90;;;5.62;75.38;-19918.28;5030237;28;20809;-63
2022/04/12 02:37:28;;;;;;;4.33;3.50;;;4.90;99.90;;;5.59;76.48;-19917.09;5030586;28;20564;-61
2022/04/12 02:39:56;;;;;;;4.17;3.30;;;4.90;99.90;;;5.61;76.11;-19917.94;5030536;28;20759;-61
2022/04/12 02:42:25;;;;;;;4.17;3.37;;;4.90;99.90;;;5.61;76.29;-19917.94;5030866;28;20580;-62
2022/04/12 02:44:52;;;;;;;3.87;3.43;;;4.90;99.90;;;5.64;75.98;-19918.97;5030049;28;20236;-61
2022/04/12 02:47:25;;;;;;;3.97;3.37;;;4.90;99.90;;;5.57;76.83;-19916.56;5030454;28;20319;-62
2022/04/12 02:49:53;;;;;;;3.37;2.90;;;4.90;99.90;;;5.46;77.13;-19912.81;5029920;28;20798;-61
2022/04/12 02:52:23;;;;;;;9.33;3.83;;;4.80;99.90;;;5.42;77.39;-19911.28;5031031;28;20297;-61
2022/04/12 02:54:51;;;;;;;4.80;3.80;;;4.80;99.90;;;5.51;76.88;-19914.53;5029886;28;20263;-60
2022/04/12 02:57:19;;;;;;;4.77;3.30;;;4.80;99.90;;;5.54;77.20;-19915.38;5030127;28;20719;-60
2022/04/12 02:59:47;;;;;;;4.43;3.60;;;4.80;99.90;;;5.39;77.74;-19910.44;5029743;28;20238;-60
2022/04/12 03:02:15;;;;;;;5.17;3.40;;;4.70;99.90;;;5.38;77.82;-19909.91;5030294;28;20258;-60
2022/04/12 03:04:43;;;;;;;5.00;3.60;;;4.80;99.90;;;5.51;77.78;-19914.34;5030000;28;20219;-62
2022/04/12 03:07:11;;;;;;;5.07;3.57;;;4.70;99.90;;;5.48;77.61;-19913.34;5030550;28;20213;-61
2022/04/12 03:09:40;;;;;;;3.87;3.33;;;4.70;99.90;;;5.50;77.29;-19914.00;5029790;28;20240;-63
2022/04/12 03:12:09;;;;;;;3.87;3.43;;;4.70;99.90;;;5.43;77.35;-19911.78;5030030;28;20417;-62
2022/04/12 03:14:38;;;;;;;4.97;3.60;;;4.70;99.90;;;5.40;77.76;-19910.59;5029927;28;20255;-61
2022/04/12 03:17:06;;;;;;;3.87;3.50;;;4.70;99.90;;;5.43;77.69;-19911.63;5030216;28;20217;-60
2022/04/12 03:19:34;;;;;;;6.60;3.40;;;4.70;99.90;;;5.33;77.77;-19908.19;5029677;28;20207;-63
2022/04/12 03:22:02;;;;;;;4.80;3.60;;;4.70;99.90;;;5.29;78.67;-19906.84;5030592;28;20246;-61
2022/04/12 03:24:31;;;;;;;6.53;3.30;;;4.60;99.90;;;5.16;79.39;-19902.41;5029564;28;20310;-62
2022/04/12 03:27:01;;;;;;;6.20;3.93;;;4.60;99.90;;;5.25;79.14;-19905.47;5029877;28;20239;-60
2022/04/12 03:29:29;;;;;;;5.70;3.60;;;4.50;99.90;;;5.10;79.66;-19900.50;5029949;28;20239;-60
2022/04/12 03:31:57;;;;;;;4.17;3.60;;;4.50;99.90;;;5.05;80.29;-19898.81;5029928;28;20223;-61
2022/04/12 03:34:25;;;;;;;7.03;3.53;;;4.40;99.90;;;5.03;80.56;-19897.94;5030714;28;20203;-61
2022/04/12 03:36:53;;;;;;;4.50;3.40;;;4.40;99.90;;;5.05;80.53;-19898.81;5031240;28;20211;-61
2022/04/12 03:39:21;;;;;;;6.53;3.83;;;4.40;99.90;;;5.01;80.80;-19897.44;5033433;28;20232;-62
2022/04/12 03:41:51;;;;;;;4.47;3.30;;;4.40;99.90;;;4.93;81.19;-19894.88;5033369;28;20238;-61
2022/04/12 03:44:20;;;;;;;4.47;3.63;;;4.30;99.90;;;4.96;81.57;-19895.91;5033308;28;20226;-61
2022/04/12 03:46:48;;;;;;;4.90;3.53;;;4.30;99.90;;;5.01;81.29;-19897.44;5033339;28;20318;-62
2022/04/12 03:49:17;;;;;;;5.10;3.77;;;4.30;99.90;;;4.90;82.23;-19893.69;5033483;28;20305;-61
2022/04/12 03:51:45;;;;;;;4.90;3.60;;;4.30;99.90;;;4.92;81.67;-19894.53;5033107;28;20230;-60
2022/04/12 03:54:13;;;;;;;5.47;3.77;;;4.30;99.90;;;5.07;81.91;-19899.31;5032709;28;20228;-61
2022/04/12 03:56:42;;;;;;;5.83;3.40;;;4.30;99.90;;;5.17;81.33;-19902.91;5033210;28;20232;-62
2022/04/12 03:59:10;;;;;;;5.07;3.63;;;4.30;99.90;;;5.08;81.73;-19899.81;5020773;28;20684;-60
2022/04/12 04:01:40;;;;;;;4.93;3.87;;;4.40;99.90;;;5.06;82.13;-19899.13;5021863;28;20208;-62
2022/04/12 04:04:09;;;;;;;4.67;3.73;;;4.40;99.90;;;5.07;82.20;-19899.50;5033484;28;20203;-60
2022/04/12 04:06:37;;;;;;;5.90;3.90;;;4.40;99.90;;;5.08;82.64;-19899.81;5032627;28;20235;-61
2022/04/12 04:09:05;;;;;;;4.30;3.57;;;4.40;99.90;;;5.14;82.82;-19901.72;5032769;28;20319;-60
2022/04/12 04:11:33;;;;;;;4.90;3.97;;;4.40;99.90;;;5.00;83.15;-19897.09;5032655;28;20326;-61
2022/04/12 04:14:03;;;;;;;7.10;4.20;;;4.40;99.90;;;4.99;83.41;-19896.91;5032796;28;20663;-60
2022/04/12 04:16:31;;;;;;;6.00;4.07;;;4.30;99.90;;;4.87;84.25;-19892.81;5033146;28;20210;-61
2022/04/12 04:19:00;;;;;;;5.03;4.03;;;4.30;99.90;;;4.95;84.13;-19895.56;5033453;28;20231;-61
2022/04/12 04:21:28;;;;;;;6.03;4.00;;;4.30;99.90;;;5.00;84.19;-19897.09;5032640;28;20800;-60
2022/04/12 04:23:56;;;;;;;6.27;3.73;;;4.30;99.90;;;5.09;83.91;-19900.16;5032653;28;20277;-60
2022/04/12 04:26:24;;;;;;;5.63;3.97;;;4.30;99.90;;;5.15;84.05;-19902.22;5032665;28;20231;-63
2022/04/12 04:28:52;;;;;;;5.17;4.00;;;4.40;99.90;;;5.06;84.39;-19898.97;5032828;28;20311;-61
2022/04/12 04:31:20;;;;;;;5.40;3.77;;;4.30;99.90;;;4.96;84.88;-19895.91;5032885;28;20203;-61
2022/04/12 04:33:52;;;;;;;4.70;4.00;;;4.30;99.90;;;5.10;84.07;-19900.50;5032959;28;20552;-61
2022/04/12 04:36:21;;;;;;;6.23;4.37;;;4.40;99.90;;;5.07;84.81;-19899.50;5032091;28;20311;-59
2022/04/12 04:38:49;;;;;;;5.03;4.20;;;4.40;99.90;;;5.13;84.52;-19901.38;5032352;28;20306;-62
2022/04/12 04:41:17;;;;;;;4.90;4.10;;;4.40;99.90;;;5.19;84.08;-19903.41;5032295;28;20314;-59
2022/04/12 04:43:46;;;;;;;5.07;3.70;;;4.50;99.90;;;5.13;84.67;-19901.53;5032446;28;20249;-61
2022/04/12 04:46:15;;;;;;;4.73;3.93;;;4.50;99.90;;;5.42;84.09;-19911.28;5032685;28;20258;-61
2022/04/12 04:48:43;;;;;;;5.80;3.80;;;4.60;99.90;;;5.30;83.62;-19907.19;5031519;28;20302;-60
2022/04/12 04:51:11;;;;;;;5.30;3.70;;;4.60;99.90;;;5.30;84.17;-19907.19;5031586;28;20316;-61
2022/04/12 04:53:42;;;;;;;4.50;3.40;;;4.60;99.90;;;5.41;83.31;-19910.94;5032060;28;20231;-60
2022/04/12 04:56:10;;;;;;;5.73;4.13;;;4.70;99.90;;;5.50;82.52;-19914.19;5032047;28;20317;-60
2022/04/12 04:58:38;;;;;;;5.47;3.80;;;4.70;99.90;;;5.45;83.21;-19912.47;5024092;28;20292;-61
2022/04/12 05:01:06;;;;;;;6.50;4.60;;;4.80;99.90;;;5.51;82.94;-19914.53;5017028;28;20207;-61
2022/04/12 05:03:35;;;;;;;5.60;3.90;;;4.80;99.90;;;5.61;82.77;-19917.78;5031531;28;20313;-61
2022/04/12 05:06:03;;;;;;;4.87;4.00;;;4.90;99.90;;;5.90;80.70;-19927.69;5031407;28;20236;-59
2022/04/12 05:08:31;;;;;;;5.07;4.00;;;5.00;99.90;;;6.01;80.04;-19931.44;5031692;28;20227;-61
2022/04/12 05:11:00;;;;;;;5.90;4.40;;;5.20;99.90;;;6.14;79.64;-19935.88;5031595;28;20603;-59
2022/04/12 05:13:28;;;;;;;5.10;4.10;;;5.30;99.90;;;6.22;79.38;-19938.47;5031626;28;20294;-62
2022/04/12 05:15:56;;;;;;;7.80;3.77;;;5.40;99.90;;;6.42;78.10;-19945.28;5032064;28;20205;-60
2022/04/12 05:18:24;;;;;;;5.87;4.20;;;5.50;99.90;;;6.56;76.36;-19950.09;5031275;28;20279;-61
2022/04/12 05:20:53;;;;;;;7.57;4.40;;;5.60;99.90;;;6.66;76.24;-19953.50;5031142;28;20319;-61
2022/04/12 05:23:21;;;;;;;5.33;3.73;;;5.80;99.90;;;6.82;76.03;-19959.13;5031350;28;20229;-61
2022/04/12 05:25:52;;;;;;;6.47;4.03;;;6.00;99.90;;;7.15;75.73;-19970.41;5031252;28;20248;-60
2022/04/12 05:28:22;;;;;;;4.90;3.90;;;6.20;99.90;;;7.60;72.31;-19985.63;5031600;28;20194;-61
2022/04/12 05:30:50;;;;;;;7.03;5.00;;;6.40;99.90;;;7.83;71.44;-19993.31;5031206;28;20228;-62
2022/04/12 05:33:18;;;;;;;5.93;4.50;;;6.70;99.90;;;7.87;71.53;-19994.69;5031074;28;20257;-61
2022/04/12 05:35:46;;;;;;;5.20;4.33;;;6.90;99.90;;;8.00;69.72;-19999.13;5030868;28;20595;-60
2022/04/12 05:38:14;;;;;;;5.73;4.37;;;7.10;99.90;;;8.02;69.86;-19999.81;5030566;28;20271;-61
2022/04/12 05:40:42;;;;;;;5.50;4.50;;;7.10;99.90;;;8.01;69.35;-19999.47;5031232;28;20294;-61
2022/04/12 05:43:10;;;;;;;4.67;4.13;;;7.20;99.90;;;7.93;69.45;-19996.91;5031609;28;20372;-61
2022/04/12 05:45:39;;;;;;;5.60;4.40;;;7.20;99.90;;;8.03;70.18;-20000.31;5030963;28;20229;-61
2022/04/12 05:48:08;;;;;;;6.33;4.43;;;7.20;99.90;;;7.87;71.34;-19994.69;5030489;28;20229;-61
2022/04/12 05:50:40;;;;;;;6.00;4.47;;;7.20;99.90;;;7.92;70.11;-19996.56;5030710;28;20233;-61
2022/04/12 05:53:09;;;;;;;5.47;4.23;;;7.20;99.90;;;7.90;69.20;-19995.72;5030882;28;20308;-61
2022/04/12 05:55:37;;;;;;;5.83;4.40;;;7.20;99.90;;;8.00;68.08;-19999.13;5030512;28;20241;-61
2022/04/12 05:58:05;;;;;;;5.40;4.20;;;7.20;99.90;;;8.04;69.01;-20000.66;5027588;28;20705;-61
2022/04/12 06:00:35;;;;;;;4.73;3.90;;;7.20;99.90;;;8.25;67.84;-20007.84;5010839;28;20306;-61
2022/04/12 06:03:04;;;;;;;4.97;4.37;;;7.40;99.90;;;8.46;66.74;-20015.00;5011030;28;20667;-62
2022/04/12 06:05:32;;;;;;;4.40;4.00;;;7.50;99.90;;;8.68;65.44;-20022.34;5010901;28;20231;-61
2022/04/12 06:08:03;;;;;;;4.97;4.47;;;7.70;99.90;;;8.70;65.40;-20023.03;5010902;28;20229;-61
2022/04/12 06:10:31;;;;;;;6.90;4.37;;;7.80;99.90;;;8.56;66.02;-20018.44;5011171;28;20340;-71
2022/04/12 06:13:00;;;;;;;5.63;4.67;;;7.80;99.90;;;8.64;66.31;-20021.16;5029993;28;20214;-70
2022/04/12 06:15:28;;;;;;;5.47;4.27;;;7.80;99.90;;;8.64;66.16;-20021.00;5030218;28;20247;-60
2022/04/12 06:17:56;;;;;;;7.60;4.60;;;7.90;99.90;;;8.84;66.01;-20027.84;5029859;28;20317;-60
2022/04/12 06:20:26;;;;;;;5.30;4.23;;;8.00;99.90;;;8.92;65.44;-20030.56;5029865;28;20304;-60
2022/04/12 06:22:54;;;;;;;6.97;4.17;;;8.00;99.90;;;9.07;64.94;-20035.50;5030308;28;20251;-62
2022/04/12 06:25:22;;;;;;;7.03;4.30;;;8.10;99.90;;;9.14;64.12;-20037.91;5030568;28;20417;-59
2022/04/12 06:27:52;;;;;;;5.80;4.50;;;8.20;99.90;;;9.33;64.09;-20044.41;5029696;28;20333;-61
2022/04/12 06:30:23;;;;;;;5.10;4.17;;;8.30;99.90;;;9.50;64.35;-20050.22;5029873;28;20226;-71
2022/04/12 06:32:53;;;;;;;9.17;4.47;;;8.40;99.90;;;9.50;63.80;-20050.38;5030069;28;20224;-61
2022/04/12 06:35:21;;;;;;;6.80;4.37;;;8.50;99.90;;;9.54;63.80;-20051.56;5029259;28;20208;-61
2022/04/12 06:37:53;;;;;;;5.47;4.43;;;8.60;99.90;;;9.70;62.74;-20057.22;5002540;28;20257;-59
2022/04/12 06:40:24;;;;;;;7.20;4.33;;;8.70;99.90;;;9.89;61.07;-20063.69;5025502;28;20273;-59
2022/04/12 06:42:53;;;;;;;6.50;4.47;;;8.80;99.90;;;9.98;61.32;-20066.59;5009855;28;20251;-60
2022/04/12 06:45:22;;;;;;;7.00;4.30;;;8.90;99.90;;;9.96;59.89;-20065.75;5019794;28;20256;-61
2022/04/12 06:47:55;;;;;;;10.20;5.20;;;9.00;99.90;;;9.89;60.63;-20063.69;5030069;28;20313;-60
2022/04/12 06:50:24;;;;;;;6.27;4.53;;;8.90;99.90;;;9.83;60.96;-20061.66;5030462;28;20194;-61
2022/04/12 06:52:56;;;;;;;5.37;4.77;;;8.90;99.90;;;9.92;60.36;-20064.38;5028206;28;20729;-59
2022/04/12 06:55:24;;;;;;;6.97;4.60;;;8.90;99.90;;;9.98;59.73;-20066.59;5009923;28;20229;-60
2022/04/12 06:57:52;;;;;;;5.07;4.30;;;9.00;99.90;;;10.00;60.24;-20067.13;5009823;28;20230;-61
2022/04/12 07:00:20;;;;;;;5.37;4.83;;;9.00;99.90;;;10.04;60.33;-20068.66;5009800;28;20226;-61
2022/04/12 07:02:49;;;;;;;5.83;4.57;;;9.00;99.90;;;10.24;59.67;-20075.50;5028337;28;20213;-60
2022/04/12 07:05:17;;;;;;;5.37;4.50;;;9.20;99.90;;;10.35;59.11;-20079.09;5030040;28;20305;-60
2022/04/12 07:07:45;;;;;;;5.33;4.43;;;9.20;99.90;;;10.47;58.25;-20083.34;5029807;28;20307;-66
2022/04/12 07:10:17;;;;;;;6.97;4.63;;;9.30;99.90;;;10.25;58.13;-20075.66;5025726;28;20626;-69
2022/04/12 07:12:46;;;;;;;6.00;4.60;;;9.30;99.90;;;10.42;57.93;-20081.47;5012858;28;20347;-61
2022/04/12 07:15:15;;;;;;;5.77;5.20;;;9.30;99.90;;;10.34;58.36;-20078.91;5013899;28;20720;-59
2022/04/12 07:17:43;;;;;;;5.27;4.07;;;9.40;99.90;;;10.35;58.79;-20079.09;5014108;28;20214;-59
2022/04/12 07:20:12;;;;;;;7.40;4.40;;;9.30;99.90;;;10.43;58.22;-20081.81;5013888;28;20692;-60
2022/04/12 07:22:40;;;;;;;7.17;4.40;;;9.40;99.90;;;10.55;57.97;-20085.91;5013954;28;20231;-60
2022/04/12 07:25:09;;;;;;;6.13;4.27;;;9.50;99.90;;;10.65;57.95;-20089.50;5013540;28;20718;-59
2022/04/12 07:27:38;;;;;;;7.53;4.23;;;9.60;99.90;;;10.83;57.45;-20095.66;5013817;28;20462;-60
2022/04/12 07:30:09;;;;;;;6.47;4.20;;;9.70;99.90;;;11.03;56.40;-20102.31;5013904;28;20234;-60
2022/04/12 07:32:37;;;;;;;6.10;4.90;;;9.80;99.90;;;11.30;55.24;-20111.53;5018611;28;20222;-59
2022/04/12 07:35:06;;;;;;;6.67;4.77;;;10.00;99.90;;;11.45;55.37;-20116.66;5013830;28;20218;-60
2022/04/12 07:37:35;;;;;;;5.40;4.43;;;10.20;99.90;;;11.54;54.99;-20119.72;5013703;28;20218;-59
2022/04/12 07:40:05;;;;;;;4.93;4.43;;;10.30;99.90;;;11.84;54.25;-20129.81;5013265;28;20227;-59
2022/04/12 07:42:33;;;;;;;6.10;4.57;;;10.40;99.90;;;12.02;53.74;-20135.97;5014123;28;20207;-58
2022/04/12 07:45:02;;;;;;;7.13;4.13;;;10.60;99.90;;;12.51;52.31;-20152.50;5014189;28;20202;-59
2022/04/12 07:47:30;;;;;;;5.30;4.43;;;10.80;99.90;;;12.61;51.82;-20156.09;5013860;28;20230;-60
2022/04/12 07:49:58;;;;;;;5.23;4.13;;;11.00;99.90;;;12.83;51.79;-20163.44;5013932;28;20301;-59
2022/04/12 07:52:26;;;;;;;6.70;4.30;;;11.20;99.90;;;12.96;50.92;-20167.88;5013655;28;20213;-60
2022/04/12 07:54:54;;;;;;;5.87;4.07;;;11.40;99.90;;;13.11;50.29;-20173.00;5013650;28;20285;-60
2022/04/12 07:57:22;;;;;;;6.10;4.60;;;11.50;99.90;;;13.16;49.99;-20174.72;5013644;28;20730;-60
2022/04/12 07:59:50;;;;;;;6.50;4.43;;;11.70;99.90;;;13.09;50.70;-20172.31;5014009;28;20217;-60
2022/04/12 08:02:19;;;;;;;6.63;4.60;;;11.70;99.90;;;13.18;50.47;-20175.41;5028125;28;20214;-61
2022/04/12 08:04:47;;;;;;;8.07;4.63;;;11.70;99.90;;;13.34;50.13;-20180.88;5033290;28;20284;-61
2022/04/12 08:07:15;;;;;;;7.67;4.50;;;11.80;99.90;;;13.37;50.71;-20182.06;5033294;28;20208;-60
2022/04/12 08:09:43;;;;;;;4.97;4.40;;;11.90;99.90;;;13.41;50.55;-20183.41;5033291;28;20285;-59
2022/04/12 08:12:11;;;;;;;6.47;4.43;;;11.90;99.90;;;13.54;50.39;-20187.69;5033059;28;20642;-61
2022/04/12 08:14:39;;;;;;;5.43;4.63;;;12.00;99.90;;;13.66;50.39;-20191.78;5033033;28;20313;-62
2022/04/12 08:17:07;;;;;;;6.50;4.20;;;12.10;99.90;;;13.66;50.18;-20191.63;5033335;28;20637;-62
2022/04/12 08:19:38;;;;;;;6.00;4.43;;;12.10;99.90;;;13.65;50.10;-20191.28;5031680;28;20599;-61
2022/04/12 08:22:06;;;;;;;5.20;4.40;;;12.20;99.90;;;13.76;49.92;-20195.03;5032155;28;20226;-62
2022/04/12 08:24:39;;;;;;;5.63;4.10;;;12.30;99.90;;;13.93;49.06;-20200.84;5031502;28;20229;-62
2022/04/12 08:27:07;;;;;;;5.93;4.70;;;12.40;99.90;;;13.77;49.48;-20195.53;5032204;28;20226;-64
2022/04/12 08:29:35;;;;;;;5.07;4.10;;;12.40;99.90;;;13.81;49.24;-20196.91;5032523;28;20472;-66
2022/04/12 08:32:04;;;;;;;5.97;4.70;;;12.40;99.90;;;13.93;49.48;-20200.84;5031816;28;20320;-64
2022/04/12 08:34:32;;;;;;;7.13;3.97;;;12.50;99.90;;;13.72;48.28;-20193.84;5031803;28;20793;-63
2022/04/12 08:37:02;;;;;;;4.83;4.20;;;12.40;99.90;;;13.40;49.56;-20182.91;5031914;28;20228;-64
2022/04/12 08:39:30;;;;;;;5.17;3.90;;;12.30;99.90;;;13.37;49.80;-20182.06;5031760;28;20705;-67
2022/04/12 08:42:03;;;;;;;4.80;3.93;;;12.20;99.90;;;13.34;50.27;-20181.03;5031571;28;20237;-60
2022/04/12 08:44:33;;;;;;;5.40;4.53;;;12.20;99.90;;;13.36;50.28;-20181.72;5032144;28;20230;-70
2022/04/12 08:47:05;;;;;;;6.23;4.50;;;12.20;99.90;;;13.45;50.61;-20184.63;5031611;28;20352;-70
2022/04/12 08:49:38;;;;;;;8.27;4.63;;;12.20;99.90;;;13.52;50.04;-20186.84;5031687;28;20234;-69
2022/04/12 08:52:11;;;;;;;8.17;4.50;;;12.30;99.90;;;13.50;49.99;-20186.31;5031583;28;20228;-59
2022/04/12 08:54:39;;;;;;;6.10;3.90;;;12.30;99.90;;;13.64;49.79;-20191.09;5031697;28;20320;-60
2022/04/12 08:57:09;;;;;;;4.97;4.30;;;12.40;99.90;;;13.66;49.70;-20191.78;5031618;28;20232;-66
2022/04/12 08:59:37;;;;;;;5.67;4.27;;;12.40;99.90;;;13.68;49.09;-20192.47;5031943;28;20212;-61
2022/04/12 09:02:09;;;;;;;5.03;4.27;;;12.40;99.90;;;13.70;48.95;-20192.97;5019126;28;20226;-60
2022/04/12 09:04:38;;;;;;;3.80;3.40;;;12.50;99.90;;;13.87;48.51;-20198.78;5011513;28;20231;-66
2022/04/12 09:07:11;;;;;;;4.87;3.77;;;12.60;99.90;;;13.93;48.42;-20201.00;5011495;28;20310;-72
2022/04/12 09:09:42;;;;;;;5.33;4.23;;;12.70;99.90;;;13.97;48.83;-20202.38;5011426;28;20244;-71
2022/04/12 09:12:12;;;;;;;4.60;3.80;;;12.70;99.90;;;14.15;49.10;-20208.50;5011363;28;20667;-60
2022/04/12 09:14:43;;;;;;;7.83;4.43;;;12.90;99.90;;;14.41;47.55;-20217.38;5016281;28;20229;-60
2022/04/12 09:17:14;;;;;;;4.63;3.87;;;13.10;99.90;;;14.43;47.06;-20218.06;5030968;28;20209;-61
2022/04/12 09:19:45;;;;;;;4.63;3.60;;;13.20;99.90;;;14.37;47.25;-20215.84;5030763;28;20221;-59
2022/04/12 09:22:18;;;;;;;4.70;3.60;;;13.20;99.90;;;14.58;46.71;-20223.03;5030986;28;20325;-63
2022/04/12 09:24:52;;;;;;;5.10;3.33;;;13.30;99.90;;;14.79;44.31;-20230.03;5030961;28;20348;-64
2022/04/12 09:27:22;;;;;;;4.03;2.70;;;13.40;99.90;;;14.89;43.49;-20233.59;5031119;28;20238;-64
2022/04/12 09:29:53;;;;;;;5.17;2.90;;;13.60;99.90;;;14.94;42.56;-20235.13;5030934;28;20451;-66
2022/04/12 09:32:22;;;;;;;5.00;3.10;;;13.70;99.90;;;15.10;43.26;-20240.59;5031523;28;20212;-57
2022/04/12 09:34:52;;;;;;;4.10;3.00;;;13.80;99.90;;;15.32;43.40;-20248.09;5030474;28;20317;-59
2022/04/12 09:37:25;;;;;;;4.90;3.00;;;14.00;99.90;;;15.36;42.02;-20249.66;5030741;28;20311;-57
2022/04/12 09:39:56;;;;;;;4.90;2.80;;;14.10;99.90;;;15.33;41.53;-20248.44;5030639;28;20783;-60
2022/04/12 09:42:48;;;;;;;3.97;2.95;;;14.10;99.90;;;15.49;41.54;-20253.91;5030704;28;20257;-60
2022/04/12 09:45:18;;;;;;;3.90;2.80;;;14.30;99.90;;;15.64;40.41;-20259.03;5019793;28;20258;-60
2022/04/12 09:47:49;;;;;;;3.63;2.38;;;14.40;99.90;;;15.83;39.91;-20265.50;5011399;28;20221;-61
2022/04/12 09:50:37;;;;;;;4.33;2.83;;;14.50;99.90;;;15.85;39.35;-20266.19;5011089;28;20210;-61
2022/04/12 09:53:11;;;;;;;3.53;2.80;;;14.60;99.90;;;15.95;39.03;-20269.44;5011367;28;20686;-60
2022/04/12 09:55:42;;;;;;;3.60;2.85;;;14.70;99.90;;;16.01;38.48;-20271.66;5010906;28;20234;-60
2022/04/12 09:58:14;;;;;;;3.20;2.50;;;14.80;99.90;;;16.04;38.31;-20272.69;5010730;28;20231;-60
2022/04/12 10:00:45;;;;;;;4.30;2.97;;;14.80;99.90;;;16.24;38.89;-20279.50;5021887;28;20670;-60
2022/04/12 10:03:16;;;;;;;4.93;2.90;;;14.90;99.90;;;16.34;37.59;-20282.91;5030452;28;20712;-61
2022/04/12 10:05:45;;;;;;;3.42;2.75;;;15.00;99.90;;;16.28;38.24;-20280.69;5030454;28;20229;-61
2022/04/12 10:08:20;;;;;;;3.25;2.50;;;15.10;99.90;;;16.36;39.46;-20283.44;5030689;28;20198;-60
2022/04/12 10:10:48;;;;;;;4.18;3.15;;;15.10;99.90;;;16.40;39.26;-20284.78;5027947;28;20221;-62
2022/04/12 10:13:17;;;;;;;4.03;3.08;;;15.10;99.90;;;16.46;39.88;-20287.03;5029736;28;20346;-62
2022/04/12 10:15:46;;;;;;;7.65;3.63;;;15.20;99.90;;;16.48;40.33;-20287.69;5030352;28;20309;-62
2022/04/12 10:18:17;;;;;;;3.60;3.20;;;15.30;99.90;;;16.54;39.90;-20289.75;5030069;28;20258;-62
2022/04/12 10:20:45;;;;;;;4.60;3.08;;;15.30;99.90;;;16.49;39.42;-20288.03;5029928;28;20182;-62
2022/04/12 10:23:23;;;;;;;3.33;2.92;;;15.30;99.90;;;16.63;39.32;-20292.66;5030826;28;20571;-61
2022/04/12 10:25:53;;;;;;;3.45;3.15;;;15.40;99.90;;;16.59;38.81;-20291.44;5029914;28;20328;-61
2022/04/12 10:28:22;;;;;;;4.20;3.10;;;15.40;99.90;;;16.78;39.06;-20297.94;5029806;28;20249;-61
2022/04/12 10:30:51;;;;;;;4.90;2.97;;;15.50;99.90;;;16.91;38.14;-20302.19;5029859;28;20233;-61
2022/04/12 10:33:26;;;;;;;4.15;3.13;;;15.60;99.90;;;16.87;38.40;-20300.84;5029470;28;20301;-61